Latest Weather Observations for McArthur River Mine

IDD60801

Issued at 4:31 pm CST Monday 30 March 2015 (issued every 30 minutes, with the page automatically refreshed every 10 minutes)

About weather observations | Map of weather stations | Latest weather observations for NT | Other Formats
Station Details ID: 014704 Name: MCARTHUR RIVER MINE AIRPORT Lat: -16.44 Lon: 136.08 Height: 40.0 m
Data from the previous 72 hours. | See also: Recent months at McArthur River Mine
Date/Time
CST
Temp
°C
App
Temp
°C
Dew
Point
Rel
Hum
%
Delta-T
°C
Wind Press
QNH
hPa
Press
MSL
hPa
Rain
since 9 am
mm
Dir
 
Spd
km/h
Gust
km/h
Spd
kts
Gust
kts
30/04:30pm 35.2 36.4 19.1 38 10.6 NE 11 19 6 10 1011.4 - 0.0
30/04:00pm 35.6 36.8 19.1 38 10.9 NE 11 20 6 11 1011.4 - 0.0
30/03:30pm 35.1 35.2 19.1 39 10.6 ENE 17 24 9 13 1011.6 - 0.0
30/03:00pm 34.8 34.9 20.4 43 9.7 ENE 20 33 11 18 1011.6 1011.3 0.0
30/02:30pm 34.3 32.7 18.3 38 10.4 NE 24 39 13 21 1011.7 - 0.0
30/02:00pm 36.5 36.7 17.6 32 12.3 ENE 13 24 7 13 1011.7 - 0.0
30/01:30pm 36.3 36.2 17.9 33 12.0 ESE 15 24 8 13 1012.1 - 0.0
30/01:00pm 35.7 36.2 18.3 35 11.4 ENE 13 22 7 12 1012.6 - 0.0
30/12:30pm 35.4 35.4 18.9 37 10.9 E 17 30 9 16 1013.3 - 0.0
30/12:00pm 35.1 35.3 18.6 37 10.8 E 15 26 8 14 1013.9 1013.6 0.0
30/11:30am 34.5 34.7 18.5 38 10.5 ENE 15 26 8 14 1014.5 - 0.0
30/11:00am 33.8 35.2 18.7 40 9.9 E 9 20 5 11 1014.8 - 0.0
30/10:30am 33.5 35.0 20.6 46 8.6 ENE 13 20 7 11 1015.2 - 0.0
30/10:00am 32.4 35.1 21.3 52 7.5 E 9 17 5 9 1015.3 - 0.0
30/09:30am 31.5 34.5 20.8 53 7.1 SE 6 11 3 6 1015.4 - 0.0
30/09:00am 29.9 34.0 22.9 66 4.8 SSE 6 9 3 5 1015.4 1015.1 0.0
30/08:30am 28.8 33.7 24.4 77 3.1 S 6 9 3 5 1015.2 - 0.0
30/08:00am 27.2 34.3 26.0 93 0.8 CALM 0 0 0 0 1014.7 - 0.0
30/07:30am 25.3 - 25.5 - - CALM 0 0 0 0 1014.4 - 0.0
30/07:00am 24.6 - 24.8 - - CALM 0 0 0 0 1014.0 - 0.0
30/06:30am 24.4 - 24.6 - - CALM 0 0 0 0 1013.6 - 0.0
30/06:00am 24.8 - 25.0 - - WSW 4 6 2 3 1013.1 1012.8 0.0
30/05:30am 25.0 - 25.2 - - SW 4 7 2 4 1013.0 - 0.0
30/05:00am 25.2 30.6 25.2 100 0.0 SSW 6 6 3 3 1012.7 - 0.0
30/04:30am 25.4 32.1 25.4 100 0.0 CALM 0 0 0 0 1012.3 - 0.0
30/04:00am 25.8 32.8 25.8 100 0.0 CALM 0 0 0 0 1012.2 - 0.0
30/03:30am 26.0 33.1 26.0 100 0.0 CALM 0 0 0 0 1012.4 - 0.0
30/03:00am 26.1 33.3 26.1 100 0.0 CALM 0 0 0 0 1012.5 1012.2 0.0
30/02:30am 26.1 33.1 25.8 98 0.2 CALM 0 0 0 0 1012.7 - 0.0
30/02:00am 26.5 33.3 25.6 95 0.6 CALM 0 0 0 0 1012.9 - 0.0
30/01:30am 26.7 33.6 25.7 94 0.7 CALM 0 0 0 0 1013.1 - 0.0
30/01:00am 27.0 33.6 25.2 90 1.3 CALM 0 0 0 0 1013.4 - 0.0
30/12:30am 27.3 32.7 25.1 88 1.5 SW 6 9 3 5 1013.7 - 0.0
30/12:00am 27.9 33.9 24.3 81 2.5 CALM 0 0 0 0 1014.1 1013.8 0.0
 
Date/Time
CST
Temp
°C
App
Temp
°C
Dew
Point
Rel
Hum
%
Delta-T
°C
Wind Press
QNH
hPa
Press
MSL
hPa
Rain
since 9 am
mm
Dir
 
Spd
km/h
Gust
km/h
Spd
kts
Gust
kts
29/11:30pm 28.3 33.8 23.4 75 3.4 CALM 0 0 0 0 1014.1 - 0.0
29/11:00pm 28.8 33.2 23.5 73 3.6 N 6 7 3 4 1014.2 - 0.0
29/10:30pm 29.2 33.3 23.2 70 4.1 N 7 9 4 5 1014.1 - 0.0
29/10:00pm 29.7 33.3 22.4 65 5.0 N 7 9 4 5 1014.0 - 0.0
29/09:30pm 30.4 33.3 21.8 60 5.8 NNE 9 13 5 7 1013.8 - 0.0
29/09:00pm 30.9 32.8 21.4 57 6.4 NE 13 19 7 10 1013.4 1013.1 0.0
29/08:30pm 31.4 32.2 20.7 53 7.1 NNE 17 22 9 12 1013.2 - 0.0
29/08:00pm 31.8 33.6 20.4 51 7.6 NNE 11 15 6 8 1012.9 - 0.0
29/07:30pm 32.5 33.4 20.1 48 8.2 NNE 15 24 8 13 1012.5 - 0.0
29/07:00pm 33.1 33.9 19.9 45 8.8 NNE 15 26 8 14 1012.2 - 0.0
29/06:30pm 33.7 34.1 19.0 42 9.7 NNE 15 20 8 11 1011.8 - 0.0
29/06:00pm 34.7 34.8 18.3 38 10.7 NE 15 20 8 11 1011.3 1011.0 0.0
29/05:30pm 35.8 35.3 16.0 30 12.6 ENE 13 20 7 11 1011.0 - 0.0
29/05:00pm 36.0 35.8 15.7 30 12.8 SE 11 20 6 11 1010.7 - 0.0
29/04:30pm 37.4 36.6 15.2 26 14.0 E 13 20 7 11 1010.4 - 0.0
29/04:00pm 37.7 37.4 15.5 27 14.1 ESE 11 17 6 9 1010.4 - 0.0
29/03:30pm 37.1 36.6 15.0 27 13.9 ESE 11 20 6 11 1010.5 - 0.0
29/03:00pm 37.4 35.1 14.6 25 14.3 ESE 20 28 11 15 1010.8 1010.5 0.0
29/02:30pm 36.7 36.3 15.2 27 13.5 NE 11 17 6 9 1011.1 - 0.0
29/02:00pm 36.8 37.0 15.8 28 13.3 E 9 17 5 9 1011.5 - 0.0
29/01:30pm 37.0 36.7 16.5 29 13.1 ENE 13 22 7 12 1011.9 - 0.0
29/01:00pm 37.1 37.2 16.6 29 13.2 NE 11 17 6 9 1012.2 - 0.0
29/12:30pm 36.4 35.6 16.0 29 13.0 ESE 15 26 8 14 1012.9 - 0.0
29/12:00pm 34.9 35.5 17.6 35 11.2 NE 11 19 6 10 1013.5 1013.2 0.0
29/11:30am 34.0 35.5 18.1 39 10.3 SSE 7 13 4 7 1014.1 - 0.0
29/11:00am 33.6 36.2 20.0 44 9.0 NNW 6 11 3 6 1014.4 - 0.0
29/10:30am 32.6 36.2 20.5 49 8.1 NW 2 7 1 4 1014.7 - 0.0
29/10:00am 31.5 34.5 20.8 53 7.2 SSW 6 9 3 5 1014.8 - 0.0
29/09:30am 31.2 34.7 21.9 57 6.3 NNW 6 7 3 4 1014.8 - 0.0
29/09:00am 30.1 34.6 22.3 63 5.3 NNW 2 7 1 4 1014.6 1014.3 0.0
29/08:30am 29.1 35.7 25.3 80 2.7 CALM 0 6 0 3 1014.4 - 0.0
29/08:00am 27.0 34.8 27.0 100 0.0 CALM 0 0 0 0 1014.3 - 0.0
29/07:30am 26.7 34.3 26.7 100 0.0 CALM 0 0 0 0 1013.9 - 0.0
29/07:00am 26.2 33.0 26.2 100 0.0 NNW 2 7 1 4 1013.6 - 0.0
29/06:30am 26.2 32.3 26.2 100 0.0 N 6 7 3 4 1013.3 - 0.0
29/06:00am 26.3 33.6 26.3 100 0.0 CALM 0 0 0 0 1013.0 1012.7 0.0
29/05:30am 26.4 33.8 26.4 100 0.0 CALM 0 6 0 3 1012.9 - 0.0
29/05:00am 26.4 33.8 26.4 100 0.0 CALM 0 0 0 0 1012.6 - 0.0
29/04:30am 26.7 33.7 25.8 95 0.6 CALM 0 7 0 4 1012.4 - 0.0
29/04:00am 26.9 33.8 25.7 93 0.8 CALM 0 0 0 0 1012.3 - 0.0
29/03:30am 27.2 33.7 25.0 88 1.5 CALM 0 0 0 0 1012.3 - 0.0
29/03:00am 27.0 33.6 25.2 90 1.3 CALM 0 0 0 0 1012.3 1012.0 0.0
29/02:30am 27.0 33.1 24.5 86 1.7 CALM 0 0 0 0 1012.3 - 0.0
29/02:00am 27.2 32.6 23.9 82 2.3 N 2 6 1 3 1012.5 - 0.0
29/01:30am 27.3 31.7 23.5 80 2.6 N 6 7 3 4 1012.7 - 0.0
29/01:00am 27.2 31.1 23.0 78 2.9 N 7 9 4 5 1013.0 - 0.0
29/12:30am 27.2 32.6 23.2 79 2.7 CALM 0 6 0 3 1013.2 - 0.0
29/12:00am 27.4 31.0 22.1 73 3.6 N 6 7 3 4 1013.4 1013.1 0.0
 
Date/Time
CST
Temp
°C
App
Temp
°C
Dew
Point
Rel
Hum
%
Delta-T
°C
Wind Press
QNH
hPa
Press
MSL
hPa
Rain
since 9 am
mm
Dir
 
Spd
km/h
Gust
km/h
Spd
kts
Gust
kts
28/11:30pm 27.8 31.3 21.8 70 4.0 N 6 9 3 5 1013.5 - 0.0
28/11:00pm 28.4 31.1 21.4 66 4.7 N 9 15 5 8 1013.3 - 0.0
28/10:30pm 28.6 31.4 20.9 63 5.1 N 7 11 4 6 1013.5 - 0.0
28/10:00pm 29.1 32.0 21.1 62 5.3 N 7 11 4 6 1013.4 - 0.0
28/09:30pm 29.5 32.1 21.2 61 5.5 N 9 11 5 6 1013.3 - 0.0
28/09:00pm 29.9 32.4 21.0 59 5.9 N 9 11 5 6 1013.2 1012.9 0.0
28/08:30pm 30.4 32.8 20.9 57 6.3 N 9 13 5 7 1012.9 - 0.0
28/08:00pm 30.8 33.1 20.7 55 6.7 N 9 13 5 7 1012.6 - 0.0
28/07:30pm 31.5 32.8 20.1 50 7.5 N 13 20 7 11 1012.3 - 0.0
28/07:00pm 31.9 33.1 19.8 48 8.0 N 13 20 7 11 1011.8 - 0.0
28/06:30pm 32.4 33.5 19.6 46 8.4 N 13 17 7 9 1011.3 - 0.0
28/06:00pm 33.2 33.6 18.9 42 9.4 N 15 20 8 11 1010.9 1010.6 0.0
28/05:30pm 34.1 33.6 17.8 38 10.5 N 17 28 9 15 1010.5 - 0.0
28/05:00pm 35.8 35.5 14.4 27 13.3 NNE 9 13 5 7 1010.4 - 0.0
28/04:30pm 36.5 35.7 13.9 26 13.9 NNE 11 19 6 10 1010.2 - 0.0
28/04:00pm 37.1 36.6 15.0 27 13.9 ENE 11 20 6 11 1010.2 - 0.0
28/03:30pm 36.6 35.4 14.0 26 14.0 NNE 13 24 7 13 1010.4 - 0.0
28/03:00pm 36.5 36.2 13.3 25 14.2 NNW 7 19 4 10 1010.6 1010.3 0.0
28/02:30pm 36.6 35.6 13.4 25 14.2 NNE 11 20 6 11 1010.9 - 0.0
28/02:00pm 36.9 36.0 13.6 24 14.3 E 11 20 6 11 1011.2 - 0.0
28/01:30pm 36.5 35.0 12.0 23 14.7 ENE 11 20 6 11 1011.5 - 0.0
28/01:00pm 36.0 34.2 12.2 23 14.3 ENE 13 26 7 14 1011.9 - 0.0
28/12:30pm 35.9 34.7 12.8 25 14.0 NE 11 22 6 12 1012.4 - 0.0
28/12:00pm 34.8 32.9 10.6 23 14.1 NE 11 17 6 9 1013.0 1012.7 0.0
28/11:30am 34.4 33.0 10.9 24 13.8 ENE 9 13 5 7 1013.4 - 0.0
28/11:00am 33.8 31.6 7.7 20 14.5 E 9 15 5 8 1013.9 - 0.0
28/10:30am 32.7 30.3 6.8 20 14.1 ESE 9 15 5 8 1014.2 - 0.0
28/10:00am 31.6 29.3 5.9 20 13.7 SE 7 17 4 9 1014.4 - 0.0
28/09:30am 30.6 28.6 7.1 23 12.7 E 7 17 4 9 1014.5 - 0.0
28/09:00am 28.7 28.1 10.4 32 10.4 ESE 4 7 2 4 1014.5 1014.2 0.0
28/08:30am 26.4 25.1 10.1 36 9.1 S 7 9 4 5 1014.3 - 0.0
28/08:00am 24.6 24.5 13.8 51 6.3 SSW 7 9 4 5 1013.9 - 0.0
28/07:30am 22.5 24.7 19.1 81 2.2 WSW 6 7 3 4 1013.8 - 0.0
28/07:00am 21.0 24.4 21.0 100 0.0 W 4 6 2 3 1013.5 - 0.0
28/06:30am 20.5 23.3 20.5 100 0.0 WSW 6 9 3 5 1013.2 - 0.0
28/06:00am 20.7 24.8 20.7 100 0.0 CALM 0 0 0 0 1012.8 1012.5 0.0
28/05:30am 20.6 24.6 20.6 100 0.0 CALM 0 0 0 0 1012.6 - 0.0
28/05:00am 21.0 25.1 20.7 98 0.2 CALM 0 0 0 0 1012.3 - 0.0
28/04:30am 21.3 24.1 20.5 95 0.5 WSW 6 7 3 4 1012.2 - 0.0
28/04:00am 21.6 25.4 20.2 92 0.9 CALM 0 0 0 0 1012.3 - 0.0
28/03:30am 22.1 26.2 20.7 92 0.9 CALM 0 0 0 0 1012.4 - 0.0
28/03:00am 22.2 26.0 21.0 93 0.8 NNW 2 6 1 3 1012.5 1012.2 0.0
28/02:30am 22.7 26.6 20.4 87 1.5 CALM 0 0 0 0 1012.9 - 0.0
28/02:00am 22.8 26.0 19.8 83 1.9 SSE 2 7 1 4 1013.2 - 0.0
28/01:30am 23.3 27.1 20.1 82 2.1 CALM 0 2 0 1 1013.3 - 0.0
28/01:00am 24.0 25.9 18.6 72 3.4 SE 6 9 3 5 1013.4 - 0.0
28/12:30am 24.2 25.6 18.6 71 3.5 S 9 19 5 10 1013.7 - 0.0
28/12:00am 24.0 27.4 19.3 75 3.0 CALM 0 0 0 0 1013.6 1013.3 0.0
 
Date/Time
CST
Temp
°C
App
Temp
°C
Dew
Point
Rel
Hum
%
Delta-T
°C
Wind Press
QNH
hPa
Press
MSL
hPa
Rain
since 9 am
mm
Dir
 
Spd
km/h
Gust
km/h
Spd
kts
Gust
kts
27/11:30pm 24.8 27.0 16.5 60 5.1 CALM 0 0 0 0 1013.8 - 0.0
27/11:00pm 25.6 26.6 16.4 56 5.7 SE 6 7 3 4 1013.9 - 0.0
27/10:30pm 26.4 28.3 16.6 55 6.1 NNW 2 7 1 4 1013.8 - 0.0
27/10:00pm 28.3 27.9 14.2 42 8.5 N 9 13 5 7 1013.9 - 0.0
27/09:30pm 28.3 27.9 13.0 39 9.0 N 7 11 4 6 1013.9 - 0.0
27/09:00pm 29.2 28.4 13.0 37 9.6 NE 9 11 5 6 1014.0 1013.7 0.0
27/08:30pm 29.4 28.4 12.3 34 10.0 NE 9 11 5 6 1013.7 - 0.0
27/08:00pm 29.8 29.2 12.3 34 10.3 NE 7 9 4 5 1013.3 - 0.0
27/07:30pm 30.9 29.8 11.8 31 11.2 NNE 9 13 5 7 1012.7 - 0.0
27/07:00pm 30.4 30.4 12.3 33 10.6 S 4 15 2 8 1012.2 - 0.0
27/06:30pm 34.0 32.7 9.9 23 13.9 S 7 9 4 5 1011.7 - 0.0
27/06:00pm 35.1 32.9 6.4 17 15.7 SSE 7 9 4 5 1011.4 1011.1 0.0
27/05:30pm 36.3 32.8 3.5 13 17.3 SSE 11 15 6 8 1011.4 - 0.0
27/05:00pm 36.7 34.2 4.9 14 17.2 ESE 7 11 4 6 1011.3 - 0.0

Other Formats:

Comma delimited format used in spreadsheet applications
http://www.bom.gov.au/fwo/IDD60801/IDD60801.94239.axf

JavaScript Object Notation format (JSON) in row-major order
http://www.bom.gov.au/fwo/IDD60801/IDD60801.94239.json